Time;durP1;ratioP1;P1;durP2;ratioP2;P2;SDS_P1;SDS_P2;PMS_P1;PMS_P2;Temp;Humidity;BMP_temperature;BMP_pressure;BME280_temperature;BME280_humidity;BME280_pressure;Samples;Min_cycle;Max_cycle;Signal;HPM_P1;HPM_P2
2022/11/29 00:01:02;;;;;;;9.93;2.00;;;;;;;4.42;100.00;100934.81;5008483;28;20100;-79
2022/11/29 00:03:29;;;;;;;5.55;1.80;;;;;;;4.40;100.00;100936.56;5008252;28;20471;-80
2022/11/29 00:06:02;;;;;;;4.75;1.80;;;;;;;4.23;100.00;100909.03;5006703;28;20037;-80
2022/11/29 00:08:29;;;;;;;6.63;2.33;;;;;;;4.25;100.00;100922.88;5006307;28;20503;-80
2022/11/29 00:10:55;;;;;;;6.18;1.80;;;;;;;4.20;100.00;100916.84;5003843;28;20070;-79
2022/11/29 00:13:22;;;;;;;4.88;1.75;;;;;;;4.25;100.00;100937.53;5009022;28;20041;-80
2022/11/29 00:15:49;;;;;;;5.57;2.13;;;;;;;4.27;100.00;100938.41;5003336;28;20510;-80
2022/11/29 00:18:16;;;;;;;7.30;2.15;;;;;;;4.33;100.00;100943.53;5005322;28;20053;-80
2022/11/29 00:20:43;;;;;;;6.57;1.98;;;;;;;4.31;100.00;100935.75;5007236;28;20052;-82
2022/11/29 00:23:09;;;;;;;7.57;2.47;;;;;;;4.38;100.00;100944.34;5005003;28;20050;-81
2022/11/29 00:25:37;;;;;;;6.53;2.00;;;;;;;4.30;100.00;100921.09;5007358;28;20053;-81
2022/11/29 00:28:04;;;;;;;7.55;2.03;;;;;;;4.38;100.00;100936.56;5005171;28;20074;-80
2022/11/29 00:30:30;;;;;;;6.18;2.38;;;;;;;4.31;100.00;100938.34;5011267;28;20582;-79
2022/11/29 00:32:57;;;;;;;8.23;2.13;;;;;;;4.37;100.00;100942.63;5008935;28;20125;-79
2022/11/29 00:35:24;;;;;;;6.43;2.03;;;;;;;4.36;100.00;100953.88;5004724;28;20050;-80
2022/11/29 00:37:50;;;;;;;9.50;2.08;;;;;;;4.35;100.00;100954.75;5004827;28;20669;-80
2022/11/29 00:40:17;;;;;;;7.10;1.85;;;;;;;4.30;100.00;100953.91;4991093;28;20046;-80
2022/11/29 00:42:44;;;;;;;4.18;1.80;;;;;;;4.29;100.00;100963.44;5003954;28;20057;-80
2022/11/29 00:45:11;;;;;;;4.88;1.80;;;;;;;4.29;100.00;100960.00;5000598;28;20104;-80
2022/11/29 00:47:37;;;;;;;6.78;2.90;;;;;;;4.18;100.00;100958.34;5000101;28;20050;-80
2022/11/29 00:50:05;;;;;;;5.70;2.00;;;;;;;4.26;100.00;100979.00;4997105;28;20124;-80
2022/11/29 00:52:32;;;;;;;7.80;2.28;;;;;;;4.18;100.00;100965.25;5000717;28;20504;-80
2022/11/29 00:54:59;;;;;;;4.68;2.10;;;;;;;4.20;100.00;100971.28;4998636;28;20050;-80
2022/11/29 00:57:25;;;;;;;6.25;2.55;;;;;;;4.20;100.00;100979.06;5003597;28;20046;-80
2022/11/29 00:59:52;;;;;;;7.75;2.30;;;;;;;3.92;100.00;100921.41;5003048;28;20108;-80
2022/11/29 01:02:19;;;;;;;6.13;1.92;;;;;;;4.21;100.00;100980.78;5004701;28;20092;-80
2022/11/29 01:04:46;;;;;;;5.05;1.90;;;;;;;3.93;100.00;100942.13;4996860;28;20053;-80
2022/11/29 01:07:12;;;;;;;8.13;2.60;;;;;;;4.07;100.00;100986.06;5008858;28;20068;-80
2022/11/29 01:09:39;;;;;;;9.10;2.25;;;;;;;3.97;100.00;100993.03;4996093;28;20675;-80
2022/11/29 01:12:06;;;;;;;8.55;1.98;;;;;;;3.76;100.00;100962.09;5005125;28;20127;-80
2022/11/29 01:14:33;;;;;;;6.95;2.17;;;;;;;3.79;100.00;100993.16;5010279;28;20054;-80
2022/11/29 01:17:00;;;;;;;5.95;2.13;;;;;;;3.78;100.00;100999.19;4999344;28;20070;-80
2022/11/29 01:19:27;;;;;;;7.88;3.83;;;;;;;3.70;100.00;101004.41;5017997;28;20054;-80
2022/11/29 01:21:53;;;;;;;5.07;2.10;;;;;;;3.77;100.00;101007.81;5015026;28;20100;-80
2022/11/29 01:24:21;;;;;;;8.18;2.08;;;;;;;3.85;100.00;101007.78;5015265;28;20069;-80
2022/11/29 01:26:47;;;;;;;6.57;2.13;;;;;;;3.84;100.00;100996.56;5013495;28;20552;-80
2022/11/29 01:29:14;;;;;;;6.20;2.22;;;;;;;3.83;100.00;100992.25;5015624;28;20542;-80
2022/11/29 01:31:41;;;;;;;3.83;1.70;;;;;;;4.04;100.00;101011.13;5015896;28;20384;-81
2022/11/29 01:34:09;;;;;;;5.22;2.03;;;;;;;4.00;100.00;101002.50;5012727;28;20050;-80
2022/11/29 01:36:36;;;;;;;6.72;2.05;;;;;;;4.13;100.00;101014.53;5014444;28;20048;-80
2022/11/29 01:39:04;;;;;;;4.95;1.83;;;;;;;4.12;100.00;101014.53;5014720;28;20626;-80
2022/11/29 01:41:34;;;;;;;7.15;2.58;;;;;;;4.09;100.00;101020.59;5014652;28;20068;-80
2022/11/29 01:44:12;;;;;;;3.47;1.50;;;;;;;4.07;100.00;101016.28;5014708;28;20458;-80
2022/11/29 01:46:44;;;;;;;7.28;1.50;;;;;;;4.10;100.00;101032.66;5003654;28;20046;-80
2022/11/29 01:49:17;;;;;;;7.53;1.80;;;;;;;4.02;100.00;101026.69;5007939;28;20523;-80
2022/11/29 01:51:51;;;;;;;5.30;1.60;;;;;;;4.18;100.00;101017.09;5009824;28;20353;-80
2022/11/29 01:54:19;;;;;;;9.00;3.55;;;;;;;4.23;100.00;101020.50;5014884;28;20116;-81
2022/11/29 01:56:48;;;;;;;7.10;2.35;;;;;;;4.14;100.00;100992.94;5016994;28;20049;-80
2022/11/29 01:59:18;;;;;;;7.97;1.85;;;;;;;4.35;100.00;101041.16;5014798;28;20072;-80
2022/11/29 02:01:44;;;;;;;7.72;1.92;;;;;;;4.24;100.00;101031.75;5015215;28;20516;-80
2022/11/29 02:04:12;;;;;;;5.70;1.83;;;;;;;4.33;100.00;101031.66;5011003;28;20784;-80
2022/11/29 02:06:41;;;;;;;7.25;2.03;;;;;;;4.23;100.00;101038.63;5012320;28;20050;-80
2022/11/29 02:09:18;;;;;;;5.28;1.80;;;;;;;4.09;100.00;101037.88;5046359;28;20085;-81
2022/11/29 02:11:57;;;;;;;8.85;1.88;;;;;;;3.89;100.00;101025.03;5007577;28;20510;-81
2022/11/29 02:14:48;;;;;;;6.00;2.17;;;;;;;3.97;100.00;101051.78;5013030;28;20061;-80
2022/11/29 02:17:21;;;;;;;6.15;2.08;;;;;;;4.00;100.00;101051.72;5022636;28;20096;-80
2022/11/29 02:20:00;;;;;;;7.55;2.08;;;;;;;4.06;100.00;101059.50;5008834;28;20054;-80
2022/11/29 02:22:45;;;;;;;5.60;1.70;;;;;;;4.11;100.00;101062.91;5013940;28;20107;-80
2022/11/29 02:25:34;;;;;;;6.53;2.05;;;;;;;3.99;100.00;101066.44;5013344;28;20050;-80
2022/11/29 02:28:46;;;;;;;9.05;2.15;;;;;;;4.37;100.00;101065.34;5008189;28;20049;-80
2022/11/29 02:31:31;;;;;;;3.95;1.70;;;;;;;4.34;100.00;101072.28;5000026;28;20046;-81
2022/11/29 02:34:10;;;;;;;4.57;1.85;;;;;;;4.44;100.00;101073.06;5008465;28;20050;-80
2022/11/29 02:37:00;;;;;;;5.18;1.85;;;;;;;4.37;100.00;101077.44;5014481;28;20050;-80
2022/11/29 02:39:42;;;;;;;5.72;1.80;;;;;;;3.86;100.00;101058.72;5012449;28;20400;-80
2022/11/29 02:42:24;;;;;;;5.55;1.98;;;;;;;3.94;100.00;101088.91;5014141;28;20423;-80
2022/11/29 02:44:59;;;;;;;10.10;3.13;;;;;;;3.58;100.00;101046.75;4994050;28;20181;-80
2022/11/29 02:47:32;;;;;;;11.52;2.78;;;;;;;4.02;100.00;101096.66;5012823;28;20096;-80
2022/11/29 02:50:04;;;;;;;6.47;2.08;;;;;;;4.26;100.00;101098.25;4999949;28;20062;-80
2022/11/29 02:52:53;;;;;;;6.78;2.22;;;;;;;4.12;100.00;101074.13;5013719;28;20506;-81
2022/11/29 02:55:41;;;;;;;7.00;2.20;;;;;;;4.24;100.00;101097.38;5004689;28;20097;-80
2022/11/29 02:58:18;;;;;;;6.65;1.80;;;;;;;4.20;100.00;101093.09;5010850;28;20057;-80
2022/11/29 03:01:14;;;;;;;6.57;1.73;;;;;;;4.34;100.00;101104.25;5011896;28;20093;-79
2022/11/29 03:03:52;;;;;;;7.75;1.90;;;;;;;4.19;100.00;101099.16;4988028;28;20074;-80
2022/11/29 03:06:24;;;;;;;4.95;1.70;;;;;;;4.22;100.00;101103.47;5007531;28;20104;-81
2022/11/29 03:09:26;;;;;;;7.25;2.10;;;;;;;4.15;100.00;101106.06;5013444;28;20057;-80
2022/11/29 03:12:22;;;;;;;6.78;2.17;;;;;;;3.80;100.00;101094.13;5012169;28;20050;-80
2022/11/29 03:15:02;;;;;;;4.32;1.88;;;;;;;3.87;100.00;101114.84;5013446;28;20058;-81
2022/11/29 03:17:51;;;;;;;6.60;2.30;;;;;;;3.53;100.00;101115.81;5012892;28;20045;-80
2022/11/29 03:20:55;;;;;;;5.38;2.10;;;;;;;3.54;100.00;101112.38;4990853;28;20104;-81
2022/11/29 03:23:57;;;;;;;10.75;2.00;;;;;;;3.40;100.00;101120.16;5008727;28;20111;-81
2022/11/29 03:26:45;;;;;;;3.95;1.60;;;;;;;3.39;100.00;101125.34;5017448;28;20053;-81
2022/11/29 03:29:33;;;;;;;5.68;1.90;;;;;;;3.33;100.00;101118.47;5001232;28;20111;-80
2022/11/29 03:32:14;;;;;;;5.72;1.70;;;;;;;3.32;100.00;101124.47;5011650;28;20038;-80
2022/11/29 03:34:47;;;;;;;6.80;2.00;;;;;;;3.27;100.00;101127.94;4993690;28;20109;-80
2022/11/29 03:37:34;;;;;;;6.90;2.13;;;;;;;3.13;100.00;101113.28;5008448;28;20136;-80
2022/11/29 03:40:13;;;;;;;12.30;2.63;;;;;;;3.13;100.00;101125.38;5011976;28;20104;-80
2022/11/29 03:42:53;;;;;;;7.95;2.00;;;;;;;2.97;100.00;101124.50;5011477;28;20100;-80
2022/11/29 03:46:03;;;;;;;7.68;2.10;;;;;;;2.97;100.00;101132.28;5004099;28;20431;-80
2022/11/29 03:48:39;;;;;;;4.75;1.90;;;;;;;2.93;100.00;101135.72;4988365;28;20075;-80
2022/11/29 03:51:14;;;;;;;4.53;1.77;;;;;;;2.96;100.00;101141.75;5008746;28;20037;-80
2022/11/29 03:53:56;;;;;;;5.53;2.03;;;;;;;2.95;100.00;101126.25;5006686;28;20078;-80
2022/11/29 03:56:35;;;;;;;6.13;2.03;;;;;;;2.85;100.00;101133.13;5030820;28;20112;-80
2022/11/29 03:59:42;;;;;;;7.07;2.05;;;;;;;2.71;100.00;101107.28;5011080;28;20050;-80
2022/11/29 04:02:39;;;;;;;5.30;2.05;;;;;;;2.84;100.00;101077.94;5006890;28;20415;-80
2022/11/29 04:05:11;;;;;;;5.22;2.15;;;;;;;3.25;100.00;101133.13;5012009;28;20085;-80
2022/11/29 04:07:56;;;;;;;3.03;1.50;;;;;;;3.36;100.00;101135.69;5011001;28;20046;-81
2022/11/29 04:10:42;;;;;;;6.82;2.05;;;;;;;3.38;100.00;101136.53;5009973;28;20049;-80
2022/11/29 04:13:46;;;;;;;6.10;2.15;;;;;;;3.32;100.00;101133.97;5004478;28;20050;-80
2022/11/29 04:16:41;;;;;;;5.30;1.73;;;;;;;3.22;100.00;101136.59;4997604;28;21434;-80
2022/11/29 04:19:43;;;;;;;5.10;1.70;;;;;;;3.26;100.00;101139.16;5011495;28;20057;-80
2022/11/29 04:22:41;;;;;;;5.30;1.90;;;;;;;3.32;100.00;101139.16;4980864;28;20451;-80
2022/11/29 04:25:32;;;;;;;6.30;1.50;;;;;;;3.04;100.00;101147.78;4985309;28;20051;-80
2022/11/29 04:28:17;;;;;;;5.20;1.60;;;;;;;3.08;100.00;101152.97;5021953;28;20042;-80
2022/11/29 04:30:57;;;;;;;4.47;2.00;;;;;;;3.16;100.00;101152.09;5005558;28;20480;-80
2022/11/29 04:33:46;;;;;;;5.65;1.77;;;;;;;3.28;100.00;101158.16;5001440;28;20095;-80
2022/11/29 04:36:34;;;;;;;5.80;1.88;;;;;;;3.27;100.00;101159.00;5010187;28;20621;-81
2022/11/29 04:39:04;;;;;;;5.05;2.03;;;;;;;3.25;100.00;101163.31;5011173;28;20057;-80
2022/11/29 04:41:40;;;;;;;6.03;2.00;;;;;;;3.34;100.00;101163.31;5011040;28;20446;-80
2022/11/29 04:44:15;;;;;;;4.82;1.73;;;;;;;3.40;100.00;101156.41;5012618;28;20054;-80
2022/11/29 04:47:08;;;;;;;4.88;1.83;;;;;;;3.45;100.00;101155.53;5009578;28;20109;-80
2022/11/29 04:49:35;;;;;;;6.63;2.08;;;;;;;3.39;100.00;101164.16;4971795;28;20050;-80
2022/11/29 04:52:04;;;;;;;3.67;1.63;;;;;;;3.05;100.00;101164.19;5012799;28;20101;-80
2022/11/29 04:54:50;;;;;;;5.18;1.70;;;;;;;2.85;100.00;101164.16;5016069;28;20058;-80
2022/11/29 04:57:35;;;;;;;4.90;1.88;;;;;;;2.71;100.00;101160.69;5006939;28;20643;-80
2022/11/29 05:00:09;;;;;;;7.32;2.00;;;;;;;2.65;100.00;101169.31;5007530;28;20054;-81
2022/11/29 05:02:54;;;;;;;3.95;1.75;;;;;;;2.73;100.00;101175.38;5008414;28;20074;-80
2022/11/29 05:06:15;;;;;;;4.60;1.90;;;;;;;2.71;100.00;101173.63;5007955;28;20049;-80
2022/11/29 05:08:42;;;;;;;9.20;2.40;;;;;;;2.57;100.00;101189.13;4948389;29;20055;-80
2022/11/29 05:11:28;;;;;;;5.95;2.30;;;;;;;2.51;100.00;101192.53;4997580;28;20069;-80
2022/11/29 05:14:08;;;;;;;5.18;2.13;;;;;;;2.44;100.00;101190.78;5010464;28;20049;-80
2022/11/29 05:16:45;;;;;;;6.20;1.80;;;;;;;2.56;100.00;101192.56;5015096;28;20564;-80
2022/11/29 05:19:18;;;;;;;4.90;1.50;;;;;;;2.55;100.00;101198.56;5010556;28;20106;-80
2022/11/29 05:22:12;;;;;;;5.55;1.92;;;;;;;2.56;100.00;101201.16;5011782;28;20096;-80
2022/11/29 05:24:53;;;;;;;7.97;2.22;;;;;;;2.62;100.00;101211.53;4999818;28;20054;-80
2022/11/29 05:27:38;;;;;;;5.55;1.85;;;;;;;2.74;100.00;101209.84;5009670;28;20080;-80
2022/11/29 05:30:08;;;;;;;4.88;1.88;;;;;;;2.65;100.00;101210.66;5010879;28;20058;-80
2022/11/29 05:33:03;;;;;;;4.53;1.98;;;;;;;2.78;100.00;101220.19;5002924;28;20435;-81
2022/11/29 05:35:49;;;;;;;5.85;1.80;;;;;;;2.84;100.00;101227.97;5011871;28;20046;-80
2022/11/29 05:38:35;;;;;;;6.15;1.98;;;;;;;2.89;100.00;101212.47;5007843;28;20112;-80
2022/11/29 05:41:37;;;;;;;5.68;1.80;;;;;;;2.93;100.00;101219.34;4990226;28;20038;-80
2022/11/29 05:44:52;;;;;;;12.77;2.10;;;;;;;2.85;100.00;101221.94;5009730;28;20057;-80
2022/11/29 05:47:53;;;;;;;7.60;1.88;;;;;;;2.90;100.00;101223.66;4991447;28;20054;-80
2022/11/29 05:50:42;;;;;;;7.22;1.98;;;;;;;2.90;100.00;101241.75;5008144;28;20058;-80
2022/11/29 05:53:23;;;;;;;5.75;1.80;;;;;;;2.94;100.00;101235.72;5009438;28;20081;-81
2022/11/29 05:56:21;;;;;;;4.95;1.73;;;;;;;2.93;100.00;101241.78;5011524;28;20046;-80
2022/11/29 05:59:09;;;;;;;8.18;2.42;;;;;;;2.88;100.00;101227.97;4992328;28;20042;-80
2022/11/29 06:02:02;;;;;;;7.05;1.90;;;;;;;2.97;100.00;101246.09;5010669;28;20046;-81
2022/11/29 06:04:57;;;;;;;6.72;1.90;;;;;;;3.02;100.00;101246.97;4987054;28;20054;-81
2022/11/29 06:08:06;;;;;;;4.28;1.60;;;;;;;2.93;100.00;101244.38;5005875;28;20534;-81
2022/11/29 06:10:38;;;;;;;4.80;1.77;;;;;;;2.88;100.00;101239.16;4997059;28;20096;-80
2022/11/29 06:13:27;;;;;;;7.10;1.85;;;;;;;2.95;100.00;101250.41;5011881;28;20050;-81
2022/11/29 06:16:01;;;;;;;6.60;2.00;;;;;;;2.92;100.00;101259.03;5012119;28;20068;-80
2022/11/29 06:18:39;;;;;;;5.88;2.05;;;;;;;2.89;100.00;101255.56;5018494;28;20160;-80
2022/11/29 06:21:18;;;;;;;4.63;1.60;;;;;;;2.98;100.00;101255.59;5012420;28;20045;-80
2022/11/29 06:24:00;;;;;;;6.20;1.95;;;;;;;2.92;100.00;101256.44;5017120;28;20531;-80
2022/11/29 06:26:52;;;;;;;5.47;1.98;;;;;;;3.01;100.00;101271.09;5025160;28;20459;-80
2022/11/29 06:29:37;;;;;;;13.75;3.03;;;;;;;2.88;100.00;101264.19;5014562;28;20053;-80
2022/11/29 06:32:36;;;;;;;7.38;2.53;;;;;;;2.68;100.00;101226.19;5004512;28;20868;-80
2022/11/29 06:35:11;;;;;;;5.85;1.98;;;;;;;2.80;100.00;101246.94;5011942;28;20104;-79
2022/11/29 06:37:41;;;;;;;3.53;1.50;;;;;;;3.09;100.00;101284.91;5012869;28;20054;-80
2022/11/29 06:40:14;;;;;;;9.02;2.22;;;;;;;3.08;100.00;101284.91;5014211;28;20100;-79
2022/11/29 06:42:41;;;;;;;6.85;1.90;;;;;;;3.10;100.00;101254.72;5012569;28;20054;-80
2022/11/29 06:45:13;;;;;;;5.45;1.80;;;;;;;3.29;100.00;101258.22;5004368;28;20055;-80
2022/11/29 06:47:58;;;;;;;4.40;1.73;;;;;;;3.35;100.00;101256.50;5014918;28;20053;-79
2022/11/29 06:50:30;;;;;;;3.80;1.50;;;;;;;3.48;100.00;101293.59;5006983;28;20053;-80
2022/11/29 06:53:12;;;;;;;4.90;1.80;;;;;;;3.51;100.00;101297.94;5015822;28;20100;-81
2022/11/29 06:55:48;;;;;;;7.63;2.17;;;;;;;2.94;100.00;101215.91;5015068;28;20054;-83
2022/11/29 06:58:43;;;;;;;8.55;1.70;;;;;;;3.43;100.00;101292.72;5019005;28;20058;-81
2022/11/29 07:01:16;;;;;;;10.07;2.58;;;;;;;3.41;100.00;101297.03;5013977;28;20058;-82
2022/11/29 07:04:28;;;;;;;4.97;2.33;;;;;;;3.51;100.00;101306.56;5010148;28;20050;-83
2022/11/29 07:06:55;;;;;;;5.55;1.85;;;;;;;3.45;100.00;101296.19;5028668;28;20069;-83
2022/11/29 07:09:32;;;;;;;4.32;1.70;;;;;;;2.91;100.00;101246.94;5022258;28;20057;-84
2022/11/29 07:12:00;;;;;;;7.93;1.90;;;;;;;3.20;100.00;101283.19;5016721;28;20054;-83
2022/11/29 07:14:27;;;;;;;5.68;2.15;;;;;;;2.96;100.00;101240.06;5029420;28;20211;-82
2022/11/29 07:17:12;;;;;;;5.10;1.85;;;;;;;3.02;100.00;101257.31;5028772;28;20049;-81
2022/11/29 07:20:02;;;;;;;5.85;2.00;;;;;;;3.19;100.00;101283.22;5015228;28;20053;-82
2022/11/29 07:22:41;;;;;;;5.22;2.03;;;;;;;3.36;100.00;101324.66;5048457;28;20050;-84
2022/11/29 07:25:17;;;;;;;8.35;2.10;;;;;;;3.31;100.00;101318.59;5022101;28;20033;-83
2022/11/29 07:28:04;;;;;;;8.75;2.65;;;;;;;3.20;100.00;101316.84;5025003;28;20053;-83
2022/11/29 07:30:47;;;;;;;11.07;3.00;;;;;;;2.94;100.00;101324.56;5022960;28;20058;-84
2022/11/29 07:33:22;;;;;;;8.55;2.97;;;;;;;2.38;100.00;101252.81;5021376;28;20144;-84
2022/11/29 07:36:30;;;;;;;8.27;3.33;;;;;;;2.62;100.00;101325.31;5024368;28;20050;-83
2022/11/29 07:39:16;;;;;;;7.85;2.88;;;;;;;2.57;100.00;101329.59;5019464;28;20539;-85
2022/11/29 07:41:50;;;;;;;4.80;2.03;;;;;;;2.59;100.00;101327.00;5023189;28;20368;-83
2022/11/29 07:44:25;;;;;;;12.90;3.15;;;;;;;2.51;100.00;101339.88;5024365;28;20058;-82
2022/11/29 07:46:53;;;;;;;7.00;2.40;;;;;;;2.33;100.00;101326.88;5022167;28;20046;-83
2022/11/29 07:49:34;;;;;;;5.60;2.00;;;;;;;2.03;100.00;101295.66;5020388;28;20058;-82
2022/11/29 07:52:01;;;;;;;6.13;2.22;;;;;;;1.89;100.00;101271.47;5013485;28;20112;-82
2022/11/29 07:54:29;;;;;;;6.65;2.22;;;;;;;2.28;100.00;101340.63;5013219;28;20050;-82
2022/11/29 07:56:55;;;;;;;6.55;2.28;;;;;;;2.15;100.00;101312.97;5019361;28;20427;-83
2022/11/29 07:59:22;;;;;;;5.88;2.97;;;;;;;2.16;100.00;101325.06;5018279;28;20065;-82
2022/11/29 08:01:49;;;;;;;6.57;2.28;;;;;;;1.80;100.00;101303.25;5015123;28;20046;-82
2022/11/29 08:04:16;;;;;;;7.68;2.50;;;;;;;1.79;100.00;101318.72;5027433;28;20050;-82
2022/11/29 08:06:43;;;;;;;7.68;2.65;;;;;;;1.83;100.00;101344.59;5013690;28;20054;-83
2022/11/29 08:09:09;;;;;;;8.95;2.22;;;;;;;2.01;100.00;101355.94;5003707;28;20061;-80
2022/11/29 08:11:38;;;;;;;5.47;2.05;;;;;;;1.93;100.00;101339.50;5013296;28;20052;-81
2022/11/29 08:14:05;;;;;;;7.18;2.55;;;;;;;1.87;100.00;101323.09;4997439;28;20581;-82
2022/11/29 08:16:32;;;;;;;5.60;2.15;;;;;;;2.41;100.00;101336.38;5008803;28;20049;-83
2022/11/29 08:18:59;;;;;;;6.32;2.03;;;;;;;2.69;100.00;101361.50;5013569;28;20115;-83
2022/11/29 08:21:26;;;;;;;8.32;2.63;;;;;;;2.46;100.00;101307.97;5014441;28;20053;-83
2022/11/29 08:23:52;;;;;;;6.07;1.92;;;;;;;2.73;100.00;101338.28;5015187;28;20050;-83
2022/11/29 08:26:20;;;;;;;8.35;2.22;;;;;;;2.74;100.00;101328.78;5013836;28;20058;-83
2022/11/29 08:28:51;;;;;;;4.03;1.73;;;;;;;2.76;100.00;101321.91;5013896;28;20058;-84
2022/11/29 08:31:19;;;;;;;4.63;1.70;;;;;;;2.64;100.00;101302.03;5014073;28;20104;-82
2022/11/29 08:33:46;;;;;;;4.15;1.48;;;;;;;3.04;100.00;101357.34;5013525;28;20054;-81
2022/11/29 08:36:18;;;;;;;7.18;1.73;;;;;;;2.81;100.00;101317.59;5014056;28;20057;-81
2022/11/29 08:38:46;;;;;;;8.60;2.55;;;;;;;2.59;100.00;101329.59;5013314;28;20053;-84
2022/11/29 08:41:14;;;;;;;7.35;2.03;;;;;;;2.79;100.00;101327.94;5000842;28;20054;-82
2022/11/29 08:43:40;;;;;;;8.60;1.92;;;;;;;3.26;100.00;101365.19;4998677;28;20053;-83
2022/11/29 08:46:07;;;;;;;6.28;1.80;;;;;;;3.35;100.00;101351.41;5010491;28;20173;-83
2022/11/29 08:48:40;;;;;;;;;;;;;;;3.77;100.00;101368.72;5013855;28;20054;-83
2022/11/29 08:51:07;;;;;;;4.93;1.67;;;;;;;3.40;100.00;101313.47;5001282;28;20274;-83
2022/11/29 08:53:40;;;;;;;6.90;1.63;;;;;;;3.47;100.00;101338.50;5004416;28;20053;-84
2022/11/29 08:56:12;;;;;;;5.13;1.70;;;;;;;3.28;100.00;101347.94;5012881;28;20475;-83
2022/11/29 08:58:58;;;;;;;6.55;2.22;;;;;;;3.19;100.00;101379.84;5005675;28;20127;-82
2022/11/29 09:01:25;;;;;;;6.07;1.90;;;;;;;2.72;100.00;101318.44;5014742;28;20112;-83
2022/11/29 09:03:58;;;;;;;6.70;2.20;;;;;;;2.61;100.00;101327.88;5008518;28;20464;-83
2022/11/29 09:06:30;;;;;;;17.25;2.78;;;;;;;2.76;100.00;101377.09;5005031;28;20056;-82
2022/11/29 09:08:59;;;;;;;5.80;2.20;;;;;;;2.31;100.00;101318.25;5004791;28;20411;-82
2022/11/29 09:11:27;;;;;;;6.07;2.03;;;;;;;2.74;100.00;101376.19;5013350;28;20578;-82
2022/11/29 09:13:58;;;;;;;8.13;2.40;;;;;;;2.69;100.00;101382.19;5013011;28;20443;-82
2022/11/29 09:16:27;;;;;;;8.13;2.17;;;;;;;2.49;100.00;101358.84;5013022;28;20057;-81
2022/11/29 09:18:54;;;;;;;6.85;2.30;;;;;;;2.60;100.00;101398.53;5013376;28;20132;-83
2022/11/29 09:21:26;;;;;;;8.82;2.15;;;;;;;2.27;100.00;101338.88;5008482;28;20057;-82
2022/11/29 09:23:57;;;;;;;8.88;3.03;;;;;;;2.71;100.00;101386.53;5012807;28;20049;-82
2022/11/29 09:26:28;;;;;;;6.68;2.20;;;;;;;2.77;100.00;101393.47;5015011;28;20078;-83
2022/11/29 09:28:56;;;;;;;7.15;2.25;;;;;;;2.61;100.00;101356.31;5016747;28;20072;-82
2022/11/29 09:31:23;;;;;;;6.22;2.13;;;;;;;2.93;100.00;101391.81;5014035;28;20057;-81
2022/11/29 09:33:50;;;;;;;5.70;1.98;;;;;;;3.06;100.00;101388.41;5014637;28;20467;-80
2022/11/29 09:36:18;;;;;;;4.00;1.63;;;;;;;3.01;100.00;101365.13;5013528;28;20455;-82
2022/11/29 09:38:52;;;;;;;9.57;2.45;;;;;;;3.10;100.00;101373.75;5017990;28;20462;-83
2022/11/29 09:41:33;;;;;;;5.75;1.88;;;;;;;3.56;100.00;101423.94;5017120;28;20046;-82
2022/11/29 09:44:37;;;;;;;6.75;1.90;;;;;;;3.73;100.00;101418.78;5017270;28;20054;-82
2022/11/29 09:47:56;;;;;;;5.50;1.83;;;;;;;3.79;100.00;101430.91;5030989;28;20056;-83
2022/11/29 09:50:41;;;;;;;17.92;12.98;;;;;;;3.82;100.00;101430.88;4987142;28;20057;-83
2022/11/29 09:53:57;;;;;;;6.82;2.83;;;;;;;4.03;100.00;101430.03;5014981;28;20472;-82
2022/11/29 09:56:35;;;;;;;57.08;9.13;;;;;;;4.13;100.00;101436.97;5017418;28;20103;-82
2022/11/29 09:59:08;;;;;;;7.80;2.28;;;;;;;3.87;100.00;101420.53;5008352;28;20054;-81
2022/11/29 10:01:41;;;;;;;;;;;;;;;4.23;100.00;101437.81;5015689;28;20049;-82
2022/11/29 10:04:15;;;;;;;4.20;1.75;;;;;;;3.95;100.00;101411.06;5015125;28;19975;-83
2022/11/29 10:06:49;;;;;;;5.47;1.80;;;;;;;4.13;100.00;101443.88;5012741;28;20056;-84
2022/11/29 10:09:47;;;;;;;7.10;2.00;;;;;;;4.13;100.00;101442.16;5014855;28;20096;-83
2022/11/29 10:12:17;;;;;;;8.32;2.17;;;;;;;4.21;100.00;101455.09;4999604;28;20050;-83
2022/11/29 10:15:01;;;;;;;8.05;3.50;;;;;;;4.30;100.00;101451.66;5014101;28;20140;-84
2022/11/29 10:17:40;;;;;;;6.85;2.00;;;;;;;4.31;100.00;101448.22;5014587;28;20050;-84
2022/11/29 10:20:18;;;;;;;5.93;1.70;;;;;;;4.14;100.00;101414.50;5002307;28;20074;-83
2022/11/29 10:22:54;;;;;;;7.70;2.10;;;;;;;4.23;100.00;101424.84;5002624;28;20045;-82
2022/11/29 10:25:29;;;;;;;7.43;2.22;;;;;;;4.48;100.00;101445.59;5016347;28;20057;-83
2022/11/29 10:27:56;;;;;;;5.55;1.83;;;;;;;4.12;100.00;101373.03;5009768;28;20065;-83
2022/11/29 10:30:23;;;;;;;9.55;3.15;;;;;;;4.06;100.00;101391.19;5015894;28;20089;-80
2022/11/29 10:32:56;;;;;;;9.18;2.72;;;;;;;4.25;100.00;101438.72;5015893;28;20475;-83
2022/11/29 10:35:23;;;;;;;7.95;2.45;;;;;;;4.09;100.00;101391.19;5014563;28;20054;-82
2022/11/29 10:37:53;;;;;;;6.80;2.30;;;;;;;4.26;100.00;101435.22;5015012;28;20504;-82
2022/11/29 10:40:46;;;;;;;7.63;2.33;;;;;;;4.06;100.00;101370.44;5015206;28;20093;-83
2022/11/29 10:43:12;;;;;;;7.57;2.35;;;;;;;4.26;100.00;101392.91;5002708;28;20053;-82
2022/11/29 10:45:48;;;;;;;7.60;1.90;;;;;;;4.55;100.00;101423.97;5015600;28;20057;-82
2022/11/29 10:48:19;;;;;;;5.63;2.03;;;;;;;4.54;100.00;101407.53;5014522;28;20054;-82
2022/11/29 10:50:49;;;;;;;9.15;2.33;;;;;;;4.88;100.00;101448.13;5014144;28;20062;-83
2022/11/29 10:53:37;;;;;;;8.15;2.20;;;;;;;4.91;100.00;101424.75;5017245;28;20050;-83
2022/11/29 10:56:04;;;;;;;8.00;2.28;;;;;;;5.03;100.00;101444.59;5015275;28;20060;-82
2022/11/29 10:58:31;;;;;;;4.55;1.63;;;;;;;5.17;100.00;101439.38;5014029;28;20053;-83
2022/11/29 11:01:01;;;;;;;6.45;1.95;;;;;;;4.89;100.00;101375.47;5047141;28;20100;-82
2022/11/29 11:03:53;;;;;;;6.68;2.03;;;;;;;4.87;100.00;101389.28;5013579;28;20046;-83
2022/11/29 11:06:25;;;;;;;5.28;1.73;;;;;;;5.13;100.00;101416.03;5014779;28;20510;-83
2022/11/29 11:09:11;;;;;;;7.60;1.75;;;;;;;5.42;100.00;101438.41;5013988;28;20053;-83
2022/11/29 11:11:39;;;;;;;5.03;1.60;;;;;;;5.44;100.00;101423.66;5000830;28;20120;-80
2022/11/29 11:14:19;;;;;;;7.35;1.60;;;;;;;5.62;100.00;101421.84;5012548;28;20123;-81
2022/11/29 11:16:46;;;;;;;5.18;1.75;;;;;;;5.58;100.00;101425.31;5013190;28;20068;-82
2022/11/29 11:19:30;;;;;;;6.18;1.77;;;;;;;5.63;100.00;101406.25;5013771;28;20114;-83
2022/11/29 11:21:59;;;;;;;6.45;1.85;;;;;;;5.47;100.00;101382.09;5013422;28;20395;-84
2022/11/29 11:24:29;;;;;;;6.85;1.90;;;;;;;5.78;100.00;101431.25;5001316;28;20128;-83
2022/11/29 11:26:56;;;;;;;4.53;1.60;;;;;;;5.56;100.00;101386.38;5013750;28;20412;-84
2022/11/29 11:29:27;;;;;;;9.80;1.92;;;;;;;5.57;100.00;101393.28;5014387;28;20049;-84
2022/11/29 11:31:59;;;;;;;9.05;2.42;;;;;;;5.51;100.00;101396.78;5013299;28;20049;-82
2022/11/29 11:34:27;;;;;;;7.93;1.90;;;;;;;5.29;100.00;101371.81;5014258;28;20053;-84
2022/11/29 11:37:14;;;;;;;5.03;1.58;;;;;;;5.86;100.00;101433.78;5013701;28;20479;-84
2022/11/29 11:39:42;;;;;;;6.38;1.80;;;;;;;5.71;100.00;101416.56;4996204;28;20053;-82
2022/11/29 11:44:59;;;;;;;5.55;1.58;;;;;;;5.95;100.00;101436.34;5013865;28;20050;-84
2022/11/29 11:47:28;;;;;;;7.40;2.03;;;;;;;6.12;100.00;101445.78;5012135;28;20057;-83
2022/11/29 11:50:02;;;;;;;5.78;1.90;;;;;;;6.04;100.00;101444.09;4999382;28;20448;-84
2022/11/29 11:52:38;;;;;;;;;;;;;;;6.03;100.00;101444.13;5013775;28;20042;-84
2022/11/29 11:55:20;;;;;;;5.40;1.50;;;;;;;6.11;100.00;101442.31;5015798;28;20008;-83
2022/11/29 11:58:12;;;;;;;6.30;2.22;;;;;;;6.14;100.00;101428.44;5024875;28;20103;-84
2022/11/29 12:00:58;;;;;;;6.85;2.53;;;;;;;6.08;100.00;101431.94;5022213;28;20052;-84
2022/11/29 12:03:42;;;;;;;7.03;2.03;;;;;;;6.14;100.00;101428.44;5015530;28;20048;-83
2022/11/29 12:06:30;;;;;;;9.45;2.63;;;;;;;6.16;100.00;101424.97;5023647;28;20128;-83
2022/11/29 12:09:22;;;;;;;7.40;2.78;;;;;;;6.11;100.00;101431.94;5023056;28;20041;-84
2022/11/29 12:11:50;;;;;;;10.23;3.20;;;;;;;5.99;100.00;101429.41;5026791;28;20056;-81
2022/11/29 12:14:25;;;;;;;8.27;2.85;;;;;;;6.01;100.00;101430.28;5025720;28;20074;-85
2022/11/29 12:17:01;;;;;;;9.00;2.80;;;;;;;5.67;100.00;101389.75;5027210;28;20046;-83